Terminal Aerodrome Forecast
Issued by NWS

Home | Current Version | Previous Version | Graphics & Text | Print | Product List | Glossary On
Versions: 1 2 3 4 5 6 7 8 9 10 11 12 13
000
FTUS43 KBIS 200529
TAFDIK
TAF
KDIK 200529Z 2006/2106 36007KT P6SM SCT150 SCT250
     FM201200 36004KT P6SM FEW130 FEW200
     FM201600 06006KT P6SM FEW120 FEW200
     FM202000 13008KT P6SM FEW130 SCT200=

USA.gov is the U.S. government's official web portal to all federal, state and local government web resources and services.